sensor_id;sensor_type;location;lat;lon;timestamp;P1;durP1;ratioP1;P2;durP2;ratioP2
22490;SDS011;11412;50.802;4.350;2022-08-19T00:00:45;7.57;;;6.75;;
22490;SDS011;11412;50.802;4.350;2022-08-19T00:03:11;7.25;;;6.75;;
22490;SDS011;11412;50.802;4.350;2022-08-19T00:05:36;7.63;;;6.93;;
22490;SDS011;11412;50.802;4.350;2022-08-19T00:08:02;12.98;;;7.93;;
22490;SDS011;11412;50.802;4.350;2022-08-19T00:10:28;8.88;;;7.93;;
22490;SDS011;11412;50.802;4.350;2022-08-19T00:12:54;9.57;;;8.68;;
22490;SDS011;11412;50.802;4.350;2022-08-19T00:15:20;8.93;;;8.13;;
22490;SDS011;11412;50.802;4.350;2022-08-19T00:17:47;10.20;;;9.05;;
22490;SDS011;11412;50.802;4.350;2022-08-19T00:20:14;10.48;;;9.38;;
22490;SDS011;11412;50.802;4.350;2022-08-19T00:22:43;10.90;;;9.90;;
22490;SDS011;11412;50.802;4.350;2022-08-19T00:25:10;16.65;;;14.98;;
22490;SDS011;11412;50.802;4.350;2022-08-19T00:27:36;16.00;;;11.82;;
22490;SDS011;11412;50.802;4.350;2022-08-19T00:30:02;13.85;;;12.45;;
22490;SDS011;11412;50.802;4.350;2022-08-19T00:32:29;21.33;;;15.55;;
22490;SDS011;11412;50.802;4.350;2022-08-19T00:34:55;19.55;;;15.63;;
22490;SDS011;11412;50.802;4.350;2022-08-19T00:37:21;19.50;;;16.08;;
22490;SDS011;11412;50.802;4.350;2022-08-19T00:39:48;19.98;;;17.83;;
22490;SDS011;11412;50.802;4.350;2022-08-19T00:42:16;20.48;;;17.52;;
22490;SDS011;11412;50.802;4.350;2022-08-19T00:44:42;22.75;;;18.13;;
22490;SDS011;11412;50.802;4.350;2022-08-19T00:47:08;22.73;;;19.05;;
22490;SDS011;11412;50.802;4.350;2022-08-19T00:49:35;23.55;;;19.13;;
22490;SDS011;11412;50.802;4.350;2022-08-19T00:52:09;26.75;;;20.80;;
22490;SDS011;11412;50.802;4.350;2022-08-19T00:54:40;28.33;;;22.52;;
22490;SDS011;11412;50.802;4.350;2022-08-19T00:57:09;25.90;;;21.20;;
22490;SDS011;11412;50.802;4.350;2022-08-19T00:59:40;25.83;;;20.85;;
22490;SDS011;11412;50.802;4.350;2022-08-19T01:02:11;26.98;;;21.98;;
22490;SDS011;11412;50.802;4.350;2022-08-19T01:04:37;29.83;;;23.02;;
22490;SDS011;11412;50.802;4.350;2022-08-19T01:07:03;30.80;;;23.08;;
22490;SDS011;11412;50.802;4.350;2022-08-19T01:09:29;26.92;;;21.67;;
22490;SDS011;11412;50.802;4.350;2022-08-19T01:11:55;24.60;;;20.95;;
22490;SDS011;11412;50.802;4.350;2022-08-19T01:14:21;26.77;;;22.15;;
22490;SDS011;11412;50.802;4.350;2022-08-19T01:16:48;27.70;;;23.35;;
22490;SDS011;11412;50.802;4.350;2022-08-19T01:22:06;32.70;;;24.60;;
22490;SDS011;11412;50.802;4.350;2022-08-19T01:24:51;27.60;;;22.67;;
22490;SDS011;11412;50.802;4.350;2022-08-19T01:27:17;27.48;;;23.65;;
22490;SDS011;11412;50.802;4.350;2022-08-19T01:29:43;29.88;;;23.25;;
22490;SDS011;11412;50.802;4.350;2022-08-19T01:32:11;25.23;;;22.13;;
22490;SDS011;11412;50.802;4.350;2022-08-19T01:34:39;27.48;;;22.42;;
22490;SDS011;11412;50.802;4.350;2022-08-19T01:37:06;28.63;;;22.40;;
22490;SDS011;11412;50.802;4.350;2022-08-19T01:39:36;28.65;;;23.52;;
22490;SDS011;11412;50.802;4.350;2022-08-19T01:42:04;27.92;;;23.13;;
22490;SDS011;11412;50.802;4.350;2022-08-19T01:44:32;30.50;;;23.88;;
22490;SDS011;11412;50.802;4.350;2022-08-19T01:46:58;27.95;;;23.27;;
22490;SDS011;11412;50.802;4.350;2022-08-19T01:49:25;28.25;;;23.08;;
22490;SDS011;11412;50.802;4.350;2022-08-19T01:51:51;26.67;;;22.33;;
22490;SDS011;11412;50.802;4.350;2022-08-19T01:54:19;27.15;;;22.30;;
22490;SDS011;11412;50.802;4.350;2022-08-19T01:56:47;26.52;;;22.63;;
22490;SDS011;11412;50.802;4.350;2022-08-19T01:59:16;28.77;;;21.92;;
22490;SDS011;11412;50.802;4.350;2022-08-19T02:01:44;24.77;;;21.98;;
22490;SDS011;11412;50.802;4.350;2022-08-19T02:04:10;26.30;;;21.65;;
22490;SDS011;11412;50.802;4.350;2022-08-19T02:06:36;25.48;;;20.83;;
22490;SDS011;11412;50.802;4.350;2022-08-19T02:09:03;26.92;;;21.85;;
22490;SDS011;11412;50.802;4.350;2022-08-19T02:11:32;28.33;;;24.65;;
22490;SDS011;11412;50.802;4.350;2022-08-19T02:14:02;26.70;;;23.08;;
22490;SDS011;11412;50.802;4.350;2022-08-19T02:16:32;28.83;;;23.10;;
22490;SDS011;11412;50.802;4.350;2022-08-19T02:18:58;27.25;;;23.42;;
22490;SDS011;11412;50.802;4.350;2022-08-19T02:21:27;27.42;;;21.85;;
22490;SDS011;11412;50.802;4.350;2022-08-19T02:23:54;27.77;;;23.27;;
22490;SDS011;11412;50.802;4.350;2022-08-19T02:26:20;28.40;;;22.70;;
22490;SDS011;11412;50.802;4.350;2022-08-19T02:28:46;28.10;;;22.58;;
22490;SDS011;11412;50.802;4.350;2022-08-19T02:31:17;28.70;;;22.92;;
22490;SDS011;11412;50.802;4.350;2022-08-19T02:33:45;29.90;;;22.40;;
22490;SDS011;11412;50.802;4.350;2022-08-19T02:36:12;27.23;;;21.58;;
22490;SDS011;11412;50.802;4.350;2022-08-19T02:38:39;25.08;;;21.00;;
22490;SDS011;11412;50.802;4.350;2022-08-19T02:41:11;28.40;;;22.63;;
22490;SDS011;11412;50.802;4.350;2022-08-19T02:43:40;26.25;;;20.92;;
22490;SDS011;11412;50.802;4.350;2022-08-19T02:46:14;26.45;;;22.67;;
22490;SDS011;11412;50.802;4.350;2022-08-19T02:48:48;28.40;;;22.98;;
22490;SDS011;11412;50.802;4.350;2022-08-19T02:51:16;26.63;;;20.88;;
22490;SDS011;11412;50.802;4.350;2022-08-19T02:53:46;24.80;;;21.02;;
22490;SDS011;11412;50.802;4.350;2022-08-19T02:56:12;26.90;;;21.45;;
22490;SDS011;11412;50.802;4.350;2022-08-19T02:58:39;28.40;;;21.17;;
22490;SDS011;11412;50.802;4.350;2022-08-19T03:01:05;27.08;;;21.52;;
22490;SDS011;11412;50.802;4.350;2022-08-19T03:03:31;24.17;;;20.05;;
22490;SDS011;11412;50.802;4.350;2022-08-19T03:06:04;23.95;;;18.73;;
22490;SDS011;11412;50.802;4.350;2022-08-19T03:08:36;24.45;;;19.40;;
22490;SDS011;11412;50.802;4.350;2022-08-19T03:11:02;24.55;;;19.70;;
22490;SDS011;11412;50.802;4.350;2022-08-19T03:13:29;26.75;;;19.92;;
22490;SDS011;11412;50.802;4.350;2022-08-19T03:15:54;22.98;;;19.15;;
22490;SDS011;11412;50.802;4.350;2022-08-19T03:18:20;23.60;;;18.95;;
22490;SDS011;11412;50.802;4.350;2022-08-19T03:20:48;24.88;;;19.83;;
22490;SDS011;11412;50.802;4.350;2022-08-19T03:23:17;23.60;;;18.45;;
22490;SDS011;11412;50.802;4.350;2022-08-19T03:25:45;21.25;;;17.90;;
22490;SDS011;11412;50.802;4.350;2022-08-19T03:28:13;27.77;;;17.90;;
22490;SDS011;11412;50.802;4.350;2022-08-19T03:30:40;21.05;;;16.65;;
22490;SDS011;11412;50.802;4.350;2022-08-19T03:33:09;23.90;;;17.58;;
22490;SDS011;11412;50.802;4.350;2022-08-19T03:35:39;22.38;;;17.48;;
22490;SDS011;11412;50.802;4.350;2022-08-19T03:38:05;19.83;;;16.48;;
22490;SDS011;11412;50.802;4.350;2022-08-19T03:40:31;24.90;;;17.33;;
22490;SDS011;11412;50.802;4.350;2022-08-19T03:43:02;23.88;;;17.45;;
22490;SDS011;11412;50.802;4.350;2022-08-19T03:45:28;21.70;;;16.63;;
22490;SDS011;11412;50.802;4.350;2022-08-19T03:47:54;22.23;;;16.83;;
22490;SDS011;11412;50.802;4.350;2022-08-19T03:50:20;26.80;;;18.95;;
22490;SDS011;11412;50.802;4.350;2022-08-19T03:52:49;23.30;;;18.70;;
22490;SDS011;11412;50.802;4.350;2022-08-19T03:55:16;25.80;;;18.90;;
22490;SDS011;11412;50.802;4.350;2022-08-19T03:57:42;26.27;;;19.38;;
22490;SDS011;11412;50.802;4.350;2022-08-19T04:00:08;27.00;;;19.10;;
22490;SDS011;11412;50.802;4.350;2022-08-19T04:02:34;23.20;;;18.10;;
22490;SDS011;11412;50.802;4.350;2022-08-19T04:05:00;25.90;;;19.17;;
22490;SDS011;11412;50.802;4.350;2022-08-19T04:07:25;26.23;;;18.95;;
22490;SDS011;11412;50.802;4.350;2022-08-19T04:09:51;26.17;;;19.10;;
22490;SDS011;11412;50.802;4.350;2022-08-19T04:12:18;24.65;;;18.65;;
22490;SDS011;11412;50.802;4.350;2022-08-19T04:14:45;29.67;;;19.67;;
22490;SDS011;11412;50.802;4.350;2022-08-19T04:17:11;25.08;;;18.42;;
22490;SDS011;11412;50.802;4.350;2022-08-19T04:19:39;28.02;;;19.02;;
22490;SDS011;11412;50.802;4.350;2022-08-19T04:22:06;26.90;;;17.58;;
22490;SDS011;11412;50.802;4.350;2022-08-19T04:24:32;25.15;;;17.02;;
22490;SDS011;11412;50.802;4.350;2022-08-19T04:27:00;24.90;;;17.50;;
22490;SDS011;11412;50.802;4.350;2022-08-19T04:29:26;23.85;;;16.40;;
22490;SDS011;11412;50.802;4.350;2022-08-19T04:31:53;24.00;;;16.88;;
22490;SDS011;11412;50.802;4.350;2022-08-19T04:34:21;25.33;;;16.67;;
22490;SDS011;11412;50.802;4.350;2022-08-19T04:36:49;26.58;;;16.35;;
22490;SDS011;11412;50.802;4.350;2022-08-19T04:39:17;26.35;;;17.00;;
22490;SDS011;11412;50.802;4.350;2022-08-19T04:41:45;23.77;;;16.50;;
22490;SDS011;11412;50.802;4.350;2022-08-19T04:44:31;28.00;;;15.50;;
22490;SDS011;11412;50.802;4.350;2022-08-19T04:46:57;27.38;;;16.70;;
22490;SDS011;11412;50.802;4.350;2022-08-19T04:49:23;26.65;;;16.40;;
22490;SDS011;11412;50.802;4.350;2022-08-19T04:51:51;27.02;;;18.00;;
22490;SDS011;11412;50.802;4.350;2022-08-19T04:54:19;29.80;;;18.75;;
22490;SDS011;11412;50.802;4.350;2022-08-19T04:56:47;26.35;;;17.13;;
22490;SDS011;11412;50.802;4.350;2022-08-19T04:59:14;24.95;;;16.27;;
22490;SDS011;11412;50.802;4.350;2022-08-19T05:01:42;23.90;;;16.88;;
22490;SDS011;11412;50.802;4.350;2022-08-19T05:04:08;24.85;;;17.95;;
22490;SDS011;11412;50.802;4.350;2022-08-19T05:06:35;26.60;;;18.85;;
22490;SDS011;11412;50.802;4.350;2022-08-19T05:09:04;29.15;;;19.48;;
22490;SDS011;11412;50.802;4.350;2022-08-19T05:11:32;28.60;;;17.95;;
22490;SDS011;11412;50.802;4.350;2022-08-19T05:13:59;24.90;;;19.38;;
22490;SDS011;11412;50.802;4.350;2022-08-19T05:16:26;28.90;;;19.05;;
22490;SDS011;11412;50.802;4.350;2022-08-19T05:18:52;29.52;;;18.35;;
22490;SDS011;11412;50.802;4.350;2022-08-19T05:21:38;28.33;;;19.65;;
22490;SDS011;11412;50.802;4.350;2022-08-19T05:24:25;30.88;;;19.25;;
22490;SDS011;11412;50.802;4.350;2022-08-19T05:26:52;27.42;;;19.45;;
22490;SDS011;11412;50.802;4.350;2022-08-19T05:29:21;26.00;;;18.58;;
22490;SDS011;11412;50.802;4.350;2022-08-19T05:31:49;25.83;;;18.50;;
22490;SDS011;11412;50.802;4.350;2022-08-19T05:34:16;22.55;;;17.08;;
22490;SDS011;11412;50.802;4.350;2022-08-19T05:36:46;26.75;;;17.05;;
22490;SDS011;11412;50.802;4.350;2022-08-19T05:39:16;24.10;;;17.00;;
22490;SDS011;11412;50.802;4.350;2022-08-19T05:41:45;23.63;;;16.77;;
22490;SDS011;11412;50.802;4.350;2022-08-19T05:44:12;21.48;;;16.40;;
22490;SDS011;11412;50.802;4.350;2022-08-19T05:46:39;22.58;;;15.75;;
22490;SDS011;11412;50.802;4.350;2022-08-19T05:49:08;19.52;;;14.88;;
22490;SDS011;11412;50.802;4.350;2022-08-19T05:51:34;23.20;;;14.35;;
22490;SDS011;11412;50.802;4.350;2022-08-19T05:54:02;19.05;;;13.35;;
22490;SDS011;11412;50.802;4.350;2022-08-19T05:56:29;18.77;;;13.55;;
22490;SDS011;11412;50.802;4.350;2022-08-19T05:59:00;17.23;;;13.30;;
22490;SDS011;11412;50.802;4.350;2022-08-19T06:01:26;16.65;;;13.18;;
22490;SDS011;11412;50.802;4.350;2022-08-19T06:03:52;15.95;;;12.13;;
22490;SDS011;11412;50.802;4.350;2022-08-19T06:06:19;17.83;;;11.45;;
22490;SDS011;11412;50.802;4.350;2022-08-19T06:08:45;12.93;;;10.73;;
22490;SDS011;11412;50.802;4.350;2022-08-19T06:11:22;13.65;;;11.02;;
22490;SDS011;11412;50.802;4.350;2022-08-19T06:13:57;14.63;;;11.40;;
22490;SDS011;11412;50.802;4.350;2022-08-19T06:16:25;13.25;;;10.23;;
22490;SDS011;11412;50.802;4.350;2022-08-19T06:18:52;13.50;;;9.15;;
22490;SDS011;11412;50.802;4.350;2022-08-19T06:21:19;14.48;;;8.73;;
22490;SDS011;11412;50.802;4.350;2022-08-19T06:23:49;18.05;;;9.38;;
22490;SDS011;11412;50.802;4.350;2022-08-19T06:26:17;13.63;;;8.40;;
22490;SDS011;11412;50.802;4.350;2022-08-19T06:28:44;11.80;;;8.15;;
22490;SDS011;11412;50.802;4.350;2022-08-19T06:31:17;10.27;;;7.40;;
22490;SDS011;11412;50.802;4.350;2022-08-19T06:33:45;8.80;;;7.13;;
22490;SDS011;11412;50.802;4.350;2022-08-19T06:36:19;11.63;;;7.38;;
22490;SDS011;11412;50.802;4.350;2022-08-19T06:38:50;10.25;;;6.60;;
22490;SDS011;11412;50.802;4.350;2022-08-19T06:41:16;16.88;;;7.30;;
22490;SDS011;11412;50.802;4.350;2022-08-19T06:43:41;11.00;;;7.13;;
22490;SDS011;11412;50.802;4.350;2022-08-19T06:46:11;12.45;;;7.00;;
22490;SDS011;11412;50.802;4.350;2022-08-19T06:48:39;13.13;;;6.88;;
22490;SDS011;11412;50.802;4.350;2022-08-19T06:51:05;11.10;;;7.30;;
22490;SDS011;11412;50.802;4.350;2022-08-19T06:53:31;12.80;;;7.75;;
22490;SDS011;11412;50.802;4.350;2022-08-19T06:55:57;14.48;;;7.30;;
22490;SDS011;11412;50.802;4.350;2022-08-19T06:58:25;14.25;;;7.03;;
22490;SDS011;11412;50.802;4.350;2022-08-19T07:00:51;16.73;;;9.07;;
22490;SDS011;11412;50.802;4.350;2022-08-19T07:03:17;9.55;;;7.22;;
22490;SDS011;11412;50.802;4.350;2022-08-19T07:05:42;21.15;;;7.43;;
22490;SDS011;11412;50.802;4.350;2022-08-19T07:08:08;11.38;;;7.90;;
22490;SDS011;11412;50.802;4.350;2022-08-19T07:10:34;12.55;;;8.35;;
22490;SDS011;11412;50.802;4.350;2022-08-19T07:13:01;13.60;;;6.70;;
22490;SDS011;11412;50.802;4.350;2022-08-19T07:15:28;14.52;;;7.75;;
22490;SDS011;11412;50.802;4.350;2022-08-19T07:17:55;13.20;;;7.80;;
22490;SDS011;11412;50.802;4.350;2022-08-19T07:20:21;15.45;;;8.05;;
22490;SDS011;11412;50.802;4.350;2022-08-19T07:22:46;14.65;;;8.27;;
22490;SDS011;11412;50.802;4.350;2022-08-19T07:25:12;13.88;;;7.30;;
22490;SDS011;11412;50.802;4.350;2022-08-19T07:27:38;12.50;;;7.05;;
22490;SDS011;11412;50.802;4.350;2022-08-19T07:30:04;14.98;;;7.35;;
22490;SDS011;11412;50.802;4.350;2022-08-19T07:32:31;12.93;;;7.63;;
22490;SDS011;11412;50.802;4.350;2022-08-19T07:34:57;11.25;;;7.85;;
22490;SDS011;11412;50.802;4.350;2022-08-19T07:37:25;12.48;;;6.93;;
22490;SDS011;11412;50.802;4.350;2022-08-19T07:39:53;9.23;;;6.97;;
22490;SDS011;11412;50.802;4.350;2022-08-19T07:42:19;8.80;;;6.72;;
22490;SDS011;11412;50.802;4.350;2022-08-19T07:44:46;9.68;;;6.40;;
22490;SDS011;11412;50.802;4.350;2022-08-19T07:47:11;12.73;;;6.60;;
22490;SDS011;11412;50.802;4.350;2022-08-19T07:49:37;9.73;;;6.65;;
22490;SDS011;11412;50.802;4.350;2022-08-19T07:52:05;8.43;;;6.43;;
22490;SDS011;11412;50.802;4.350;2022-08-19T07:54:33;10.73;;;5.78;;
22490;SDS011;11412;50.802;4.350;2022-08-19T07:57:02;7.97;;;6.10;;
22490;SDS011;11412;50.802;4.350;2022-08-19T07:59:28;10.70;;;6.10;;
22490;SDS011;11412;50.802;4.350;2022-08-19T08:01:55;9.48;;;6.18;;
22490;SDS011;11412;50.802;4.350;2022-08-19T08:04:21;11.73;;;6.57;;
22490;SDS011;11412;50.802;4.350;2022-08-19T08:07:06;9.25;;;6.63;;
22490;SDS011;11412;50.802;4.350;2022-08-19T08:09:52;6.68;;;5.57;;
22490;SDS011;11412;50.802;4.350;2022-08-19T08:12:20;10.15;;;6.20;;
22490;SDS011;11412;50.802;4.350;2022-08-19T08:14:55;7.45;;;5.70;;
22490;SDS011;11412;50.802;4.350;2022-08-19T08:17:24;8.15;;;5.53;;
22490;SDS011;11412;50.802;4.350;2022-08-19T08:19:51;6.63;;;5.07;;
22490;SDS011;11412;50.802;4.350;2022-08-19T08:22:20;11.77;;;5.22;;
22490;SDS011;11412;50.802;4.350;2022-08-19T08:25:07;8.65;;;4.90;;
22490;SDS011;11412;50.802;4.350;2022-08-19T08:27:39;8.30;;;4.82;;
22490;SDS011;11412;50.802;4.350;2022-08-19T08:30:06;9.10;;;4.85;;
22490;SDS011;11412;50.802;4.350;2022-08-19T08:32:35;6.63;;;4.30;;
22490;SDS011;11412;50.802;4.350;2022-08-19T08:35:02;8.82;;;3.70;;
22490;SDS011;11412;50.802;4.350;2022-08-19T08:37:29;6.97;;;5.03;;
22490;SDS011;11412;50.802;4.350;2022-08-19T08:39:55;4.80;;;4.00;;
22490;SDS011;11412;50.802;4.350;2022-08-19T08:42:23;9.07;;;4.57;;
22490;SDS011;11412;50.802;4.350;2022-08-19T08:45:00;6.15;;;5.45;;
22490;SDS011;11412;50.802;4.350;2022-08-19T08:47:35;6.72;;;4.35;;
22490;SDS011;11412;50.802;4.350;2022-08-19T08:52:36;6.65;;;3.80;;
22490;SDS011;11412;50.802;4.350;2022-08-19T08:55:12;7.07;;;4.53;;
22490;SDS011;11412;50.802;4.350;2022-08-19T09:00:34;4.82;;;4.32;;
22490;SDS011;11412;50.802;4.350;2022-08-19T09:03:00;5.53;;;4.45;;
22490;SDS011;11412;50.802;4.350;2022-08-19T09:11:15;8.88;;;4.50;;
22490;SDS011;11412;50.802;4.350;2022-08-19T09:14:06;5.63;;;3.88;;
22490;SDS011;11412;50.802;4.350;2022-08-19T09:17:07;6.25;;;4.07;;
22490;SDS011;11412;50.802;4.350;2022-08-19T09:22:16;7.20;;;4.18;;
22490;SDS011;11412;50.802;4.350;2022-08-19T09:24:43;5.50;;;4.00;;
22490;SDS011;11412;50.802;4.350;2022-08-19T09:27:08;5.45;;;4.10;;
22490;SDS011;11412;50.802;4.350;2022-08-19T09:29:34;6.13;;;3.97;;
22490;SDS011;11412;50.802;4.350;2022-08-19T09:32:00;8.80;;;4.25;;
22490;SDS011;11412;50.802;4.350;2022-08-19T09:34:25;5.60;;;3.90;;
22490;SDS011;11412;50.802;4.350;2022-08-19T09:36:51;6.20;;;4.55;;
22490;SDS011;11412;50.802;4.350;2022-08-19T09:39:18;9.30;;;5.20;;
22490;SDS011;11412;50.802;4.350;2022-08-19T09:41:44;6.50;;;4.53;;
22490;SDS011;11412;50.802;4.350;2022-08-19T09:44:09;7.68;;;4.47;;
22490;SDS011;11412;50.802;4.350;2022-08-19T09:46:37;6.60;;;4.38;;
22490;SDS011;11412;50.802;4.350;2022-08-19T09:49:02;6.43;;;4.25;;
22490;SDS011;11412;50.802;4.350;2022-08-19T09:51:31;5.97;;;4.03;;
22490;SDS011;11412;50.802;4.350;2022-08-19T09:54:01;4.65;;;4.25;;
22490;SDS011;11412;50.802;4.350;2022-08-19T09:56:28;6.60;;;5.18;;
22490;SDS011;11412;50.802;4.350;2022-08-19T09:58:56;5.10;;;4.13;;
22490;SDS011;11412;50.802;4.350;2022-08-19T10:01:24;4.82;;;4.05;;
22490;SDS011;11412;50.802;4.350;2022-08-19T10:03:55;6.72;;;4.25;;
22490;SDS011;11412;50.802;4.350;2022-08-19T10:06:22;4.35;;;4.00;;
22490;SDS011;11412;50.802;4.350;2022-08-19T10:08:49;6.30;;;4.28;;
22490;SDS011;11412;50.802;4.350;2022-08-19T10:11:16;4.57;;;4.10;;
22490;SDS011;11412;50.802;4.350;2022-08-19T10:13:43;5.00;;;4.15;;
22490;SDS011;11412;50.802;4.350;2022-08-19T10:16:14;7.80;;;5.55;;
22490;SDS011;11412;50.802;4.350;2022-08-19T10:18:43;5.25;;;4.75;;
22490;SDS011;11412;50.802;4.350;2022-08-19T10:21:13;5.75;;;5.15;;
22490;SDS011;11412;50.802;4.350;2022-08-19T10:23:43;7.28;;;5.40;;
22490;SDS011;11412;50.802;4.350;2022-08-19T10:26:11;6.25;;;5.40;;
22490;SDS011;11412;50.802;4.350;2022-08-19T10:28:38;6.47;;;5.22;;
22490;SDS011;11412;50.802;4.350;2022-08-19T10:31:26;6.55;;;5.65;;
22490;SDS011;11412;50.802;4.350;2022-08-19T10:33:54;6.45;;;5.78;;
22490;SDS011;11412;50.802;4.350;2022-08-19T10:36:26;5.80;;;5.18;;
22490;SDS011;11412;50.802;4.350;2022-08-19T10:38:54;7.03;;;6.07;;
22490;SDS011;11412;50.802;4.350;2022-08-19T10:41:25;9.25;;;5.93;;
22490;SDS011;11412;50.802;4.350;2022-08-19T10:43:57;8.88;;;5.50;;
22490;SDS011;11412;50.802;4.350;2022-08-19T10:46:26;6.40;;;5.63;;
22490;SDS011;11412;50.802;4.350;2022-08-19T10:48:53;8.80;;;6.18;;
22490;SDS011;11412;50.802;4.350;2022-08-19T10:51:19;8.27;;;6.57;;
22490;SDS011;11412;50.802;4.350;2022-08-19T10:54:04;9.43;;;6.75;;
22490;SDS011;11412;50.802;4.350;2022-08-19T10:56:30;7.40;;;6.25;;
22490;SDS011;11412;50.802;4.350;2022-08-19T10:59:16;9.60;;;6.28;;
22490;SDS011;11412;50.802;4.350;2022-08-19T11:01:43;7.55;;;6.75;;
22490;SDS011;11412;50.802;4.350;2022-08-19T11:04:10;7.28;;;5.82;;
22490;SDS011;11412;50.802;4.350;2022-08-19T11:06:41;8.90;;;6.57;;
22490;SDS011;11412;50.802;4.350;2022-08-19T11:09:08;8.05;;;7.22;;
22490;SDS011;11412;50.802;4.350;2022-08-19T11:11:34;8.45;;;7.60;;
22490;SDS011;11412;50.802;4.350;2022-08-19T11:14:05;11.57;;;7.88;;
22490;SDS011;11412;50.802;4.350;2022-08-19T11:16:43;8.30;;;7.60;;
22490;SDS011;11412;50.802;4.350;2022-08-19T11:19:10;15.50;;;8.32;;
22490;SDS011;11412;50.802;4.350;2022-08-19T11:21:42;13.57;;;8.02;;
22490;SDS011;11412;50.802;4.350;2022-08-19T11:24:13;9.13;;;7.40;;
22490;SDS011;11412;50.802;4.350;2022-08-19T11:26:42;10.02;;;7.50;;
22490;SDS011;11412;50.802;4.350;2022-08-19T11:29:09;9.48;;;7.30;;
22490;SDS011;11412;50.802;4.350;2022-08-19T11:31:37;8.43;;;7.60;;
22490;SDS011;11412;50.802;4.350;2022-08-19T11:34:06;7.57;;;6.75;;
22490;SDS011;11412;50.802;4.350;2022-08-19T11:36:34;9.88;;;6.22;;
22490;SDS011;11412;50.802;4.350;2022-08-19T11:39:03;8.80;;;6.28;;
22490;SDS011;11412;50.802;4.350;2022-08-19T11:41:30;10.02;;;6.03;;
22490;SDS011;11412;50.802;4.350;2022-08-19T11:43:55;7.57;;;5.60;;
22490;SDS011;11412;50.802;4.350;2022-08-19T11:46:23;6.78;;;6.10;;
22490;SDS011;11412;50.802;4.350;2022-08-19T11:48:49;6.70;;;5.75;;
22490;SDS011;11412;50.802;4.350;2022-08-19T11:51:19;6.10;;;5.45;;
22490;SDS011;11412;50.802;4.350;2022-08-19T11:53:47;6.57;;;5.53;;
22490;SDS011;11412;50.802;4.350;2022-08-19T11:56:13;8.32;;;5.18;;
22490;SDS011;11412;50.802;4.350;2022-08-19T11:58:39;7.93;;;5.38;;
22490;SDS011;11412;50.802;4.350;2022-08-19T12:01:10;6.00;;;4.32;;
22490;SDS011;11412;50.802;4.350;2022-08-19T12:03:37;7.82;;;4.88;;
22490;SDS011;11412;50.802;4.350;2022-08-19T12:06:05;4.72;;;4.30;;
22490;SDS011;11412;50.802;4.350;2022-08-19T12:08:31;7.03;;;4.40;;
22490;SDS011;11412;50.802;4.350;2022-08-19T12:10:57;4.05;;;3.65;;
22490;SDS011;11412;50.802;4.350;2022-08-19T12:13:26;7.15;;;4.13;;
22490;SDS011;11412;50.802;4.350;2022-08-19T12:15:53;4.32;;;4.03;;
22490;SDS011;11412;50.802;4.350;2022-08-19T12:18:19;3.95;;;3.40;;
22490;SDS011;11412;50.802;4.350;2022-08-19T12:20:45;3.72;;;3.42;;
22490;SDS011;11412;50.802;4.350;2022-08-19T12:23:12;3.28;;;2.78;;
22490;SDS011;11412;50.802;4.350;2022-08-19T12:25:48;4.22;;;3.13;;
22490;SDS011;11412;50.802;4.350;2022-08-19T12:28:21;4.38;;;3.00;;
22490;SDS011;11412;50.802;4.350;2022-08-19T12:30:48;5.03;;;2.60;;
22490;SDS011;11412;50.802;4.350;2022-08-19T12:33:16;7.07;;;2.55;;
22490;SDS011;11412;50.802;4.350;2022-08-19T12:35:43;4.50;;;2.53;;
22490;SDS011;11412;50.802;4.350;2022-08-19T12:38:10;2.55;;;1.85;;
22490;SDS011;11412;50.802;4.350;2022-08-19T12:40:36;6.07;;;1.92;;
22490;SDS011;11412;50.802;4.350;2022-08-19T12:43:02;2.17;;;1.60;;
22490;SDS011;11412;50.802;4.350;2022-08-19T12:45:29;3.65;;;2.20;;
22490;SDS011;11412;50.802;4.350;2022-08-19T12:47:54;2.78;;;1.88;;
22490;SDS011;11412;50.802;4.350;2022-08-19T12:50:20;6.50;;;2.28;;
22490;SDS011;11412;50.802;4.350;2022-08-19T12:52:46;2.50;;;2.30;;
22490;SDS011;11412;50.802;4.350;2022-08-19T12:55:13;2.67;;;2.22;;
22490;SDS011;11412;50.802;4.350;2022-08-19T12:57:39;4.60;;;1.60;;
22490;SDS011;11412;50.802;4.350;2022-08-19T13:00:06;3.83;;;2.03;;
22490;SDS011;11412;50.802;4.350;2022-08-19T13:02:38;2.22;;;2.00;;
22490;SDS011;11412;50.802;4.350;2022-08-19T13:05:09;5.75;;;1.40;;
22490;SDS011;11412;50.802;4.350;2022-08-19T13:07:37;2.05;;;1.85;;
22490;SDS011;11412;50.802;4.350;2022-08-19T13:10:08;4.13;;;1.35;;
22490;SDS011;11412;50.802;4.350;2022-08-19T13:12:36;2.28;;;1.60;;
22490;SDS011;11412;50.802;4.350;2022-08-19T13:15:03;3.08;;;1.40;;
22490;SDS011;11412;50.802;4.350;2022-08-19T13:17:29;5.25;;;1.20;;
22490;SDS011;11412;50.802;4.350;2022-08-19T13:19:55;3.03;;;1.50;;
22490;SDS011;11412;50.802;4.350;2022-08-19T13:22:20;1.60;;;1.30;;
22490;SDS011;11412;50.802;4.350;2022-08-19T13:24:46;7.05;;;1.30;;
22490;SDS011;11412;50.802;4.350;2022-08-19T13:27:13;2.20;;;1.20;;
22490;SDS011;11412;50.802;4.350;2022-08-19T13:29:39;2.22;;;1.30;;
22490;SDS011;11412;50.802;4.350;2022-08-19T13:32:25;1.30;;;1.20;;
22490;SDS011;11412;50.802;4.350;2022-08-19T13:35:09;5.47;;;1.20;;
22490;SDS011;11412;50.802;4.350;2022-08-19T13:37:34;2.58;;;1.30;;
22490;SDS011;11412;50.802;4.350;2022-08-19T13:40:27;1.17;;;1.17;;
22490;SDS011;11412;50.802;4.350;2022-08-19T13:42:53;7.90;;;1.42;;
22490;SDS011;11412;50.802;4.350;2022-08-19T13:45:21;3.20;;;1.00;;
22490;SDS011;11412;50.802;4.350;2022-08-19T13:47:49;3.25;;;1.38;;
22490;SDS011;11412;50.802;4.350;2022-08-19T13:50:17;3.33;;;1.40;;
22490;SDS011;11412;50.802;4.350;2022-08-19T13:52:46;1.45;;;1.27;;
22490;SDS011;11412;50.802;4.350;2022-08-19T13:55:12;1.27;;;1.17;;
22490;SDS011;11412;50.802;4.350;2022-08-19T13:57:39;2.70;;;1.30;;
22490;SDS011;11412;50.802;4.350;2022-08-19T14:00:09;1.48;;;1.30;;
22490;SDS011;11412;50.802;4.350;2022-08-19T14:02:39;1.27;;;1.10;;
22490;SDS011;11412;50.802;4.350;2022-08-19T14:05:06;2.33;;;0.90;;
22490;SDS011;11412;50.802;4.350;2022-08-19T14:07:34;0.85;;;0.85;;
22490;SDS011;11412;50.802;4.350;2022-08-19T14:10:00;2.20;;;0.95;;
22490;SDS011;11412;50.802;4.350;2022-08-19T14:12:27;2.40;;;1.00;;
22490;SDS011;11412;50.802;4.350;2022-08-19T14:14:53;1.35;;;1.10;;
22490;SDS011;11412;50.802;4.350;2022-08-19T14:17:19;4.13;;;1.48;;
22490;SDS011;11412;50.802;4.350;2022-08-19T14:19:44;4.85;;;2.03;;
22490;SDS011;11412;50.802;4.350;2022-08-19T14:22:10;1.25;;;0.98;;
22490;SDS011;11412;50.802;4.350;2022-08-19T14:24:39;2.75;;;1.25;;
22490;SDS011;11412;50.802;4.350;2022-08-19T14:27:05;3.85;;;0.93;;
22490;SDS011;11412;50.802;4.350;2022-08-19T14:29:32;2.35;;;1.02;;
22490;SDS011;11412;50.802;4.350;2022-08-19T14:31:58;1.08;;;0.85;;
22490;SDS011;11412;50.802;4.350;2022-08-19T14:34:24;2.00;;;1.10;;
22490;SDS011;11412;50.802;4.350;2022-08-19T14:36:51;6.05;;;1.23;;
22490;SDS011;11412;50.802;4.350;2022-08-19T14:39:17;0.88;;;0.88;;
22490;SDS011;11412;50.802;4.350;2022-08-19T14:41:43;1.25;;;1.00;;
22490;SDS011;11412;50.802;4.350;2022-08-19T14:44:10;0.90;;;0.90;;
22490;SDS011;11412;50.802;4.350;2022-08-19T14:46:38;1.30;;;1.20;;
22490;SDS011;11412;50.802;4.350;2022-08-19T14:49:04;1.48;;;1.20;;
22490;SDS011;11412;50.802;4.350;2022-08-19T14:51:30;1.05;;;1.05;;
22490;SDS011;11412;50.802;4.350;2022-08-19T14:53:56;2.50;;;1.30;;
22490;SDS011;11412;50.802;4.350;2022-08-19T14:56:24;1.52;;;1.00;;
22490;SDS011;11412;50.802;4.350;2022-08-19T14:58:52;2.75;;;1.00;;